N1JM EGGW-EGPH
Flight info
| Callsign | N1JM |
|---|---|
| Flight time | 0h 48m |
| Altitude | 32000 |
| Route | OLNEY T420 TNT UN57 POL UN601 RIBEL DCT INPIP |
| Aircraft | C750/M-SBDE3FGHRWXY/S |
Departure
| Time | 2026-04-26 09:47 |
|---|---|
| Airport | London Luton Airport (EGGW) |
Arrival
| Time | 2026-04-26 10:35 |
|---|---|
| Airport | Edinburgh Airport (EGPH) |
| Time | Latitude | Longitude | Altitude | Speed | Heading |
|---|---|---|---|---|---|
| 2026-04-26 09:29 | 51.88369 | -0.37463 | 508 ft | 0 kts | 85° |
| 2026-04-26 09:40 | 51.88369 | -0.37461 | 508 ft | 0 kts | 85° |
| 2026-04-26 09:40 | 51.88370 | -0.37450 | 508 ft | 3 kts | 85° |
| 2026-04-26 09:40 | 51.88370 | -0.37443 | 508 ft | 0 kts | 85° |
| 2026-04-26 09:41 | 51.88370 | -0.37437 | 508 ft | 4 kts | 85° |
| 2026-04-26 09:41 | 51.88362 | -0.37334 | 507 ft | 11 kts | 111° |
| 2026-04-26 09:41 | 51.88322 | -0.37290 | 508 ft | 2 kts | 165° |
| 2026-04-26 09:42 | 51.88319 | -0.37288 | 508 ft | 0 kts | 167° |
| 2026-04-26 09:42 | 51.88294 | -0.37279 | 512 ft | 10 kts | 163° |
| 2026-04-26 09:42 | 51.88206 | -0.37233 | 513 ft | 14 kts | 160° |
| 2026-04-26 09:42 | 51.88094 | -0.37173 | 506 ft | 20 kts | 162° |
| 2026-04-26 09:43 | 51.87963 | -0.37103 | 505 ft | 19 kts | 162° |
| 2026-04-26 09:43 | 51.87816 | -0.37024 | 510 ft | 25 kts | 161° |
| 2026-04-26 09:43 | 51.87672 | -0.36949 | 520 ft | 18 kts | 162° |
| 2026-04-26 09:43 | 51.87618 | -0.37034 | 519 ft | 18 kts | 258° |
| 2026-04-26 09:44 | 51.87575 | -0.37302 | 518 ft | 25 kts | 266° |
| 2026-04-26 09:44 | 51.87555 | -0.37462 | 518 ft | 13 kts | 204° |
| 2026-04-26 09:44 | 51.87492 | -0.37603 | 519 ft | 17 kts | 254° |
| 2026-04-26 09:44 | 51.87463 | -0.37776 | 519 ft | 16 kts | 253° |
| 2026-04-26 09:45 | 51.87435 | -0.37937 | 520 ft | 14 kts | 255° |
| 2026-04-26 09:45 | 51.87388 | -0.38052 | 520 ft | 12 kts | 214° |
| 2026-04-26 09:45 | 51.87315 | -0.38109 | 519 ft | 11 kts | 204° |
| 2026-04-26 09:45 | 51.87249 | -0.38081 | 520 ft | 8 kts | 107° |
| 2026-04-26 09:46 | 51.87251 | -0.38062 | 520 ft | 0 kts | 73° |
| 2026-04-26 09:46 | 51.87255 | -0.38040 | 520 ft | 19 kts | 73° |
| 2026-04-26 09:46 | 51.87402 | -0.37199 | 517 ft | 129 kts | 73° |
| 2026-04-26 09:46 | 51.87643 | -0.35679 | 1014 ft | 142 kts | 79° |
| 2026-04-26 09:47 | 51.87884 | -0.34018 | 1614 ft | 163 kts | 77° |
| 2026-04-26 09:47 | 51.88262 | -0.32212 | 2383 ft | 173 kts | 74° |
| 2026-04-26 09:47 | 51.88639 | -0.30298 | 3194 ft | 186 kts | 75° |
| 2026-04-26 09:47 | 51.89014 | -0.28232 | 4119 ft | 197 kts | 73° |
| 2026-04-26 09:48 | 51.89876 | -0.26437 | 5001 ft | 213 kts | 38° |
| 2026-04-26 09:48 | 51.91301 | -0.25673 | 5958 ft | 224 kts | 2° |
| 2026-04-26 09:48 | 51.92787 | -0.26414 | 6958 ft | 229 kts | 325° |
| 2026-04-26 09:48 | 51.93733 | -0.28464 | 7961 ft | 233 kts | 288° |
| 2026-04-26 09:49 | 51.93763 | -0.31058 | 9073 ft | 232 kts | 258° |
| 2026-04-26 09:49 | 51.93380 | -0.33567 | 10316 ft | 226 kts | 255° |
| 2026-04-26 09:49 | 51.92985 | -0.35992 | 11427 ft | 220 kts | 255° |
| 2026-04-26 09:49 | 51.92765 | -0.38417 | 12398 ft | 219 kts | 273° |
| 2026-04-26 09:50 | 51.93277 | -0.40734 | 13349 ft | 223 kts | 302° |
| 2026-04-26 09:50 | 51.94317 | -0.42580 | 14354 ft | 219 kts | 312° |
| 2026-04-26 09:50 | 51.95375 | -0.44324 | 15275 ft | 215 kts | 311° |
| 2026-04-26 09:50 | 51.96412 | -0.46051 | 16164 ft | 212 kts | 311° |
| 2026-04-26 09:51 | 51.97439 | -0.47762 | 17034 ft | 211 kts | 311° |
| 2026-04-26 09:51 | 51.98463 | -0.49465 | 17904 ft | 211 kts | 310° |
| 2026-04-26 09:51 | 51.99485 | -0.51167 | 18754 ft | 211 kts | 310° |
| 2026-04-26 09:51 | 52.00527 | -0.52907 | 19282 ft | 225 kts | 310° |
| 2026-04-26 09:52 | 52.01680 | -0.54841 | 19516 ft | 252 kts | 311° |
| 2026-04-26 09:52 | 52.04387 | -0.59357 | 20002 ft | 305 kts | 311° |
| 2026-04-26 09:52 | 52.05931 | -0.61938 | 20169 ft | 331 kts | 311° |
| 2026-04-26 09:53 | 52.07600 | -0.64734 | 20249 ft | 358 kts | 311° |
| 2026-04-26 09:53 | 52.09395 | -0.67741 | 20290 ft | 383 kts | 312° |
| 2026-04-26 09:53 | 52.11286 | -0.70908 | 20734 ft | 393 kts | 312° |
| 2026-04-26 09:53 | 52.13294 | -0.73931 | 21424 ft | 398 kts | 322° |
| 2026-04-26 09:54 | 52.15671 | -0.76281 | 22103 ft | 401 kts | 327° |
| 2026-04-26 09:54 | 52.18078 | -0.78608 | 22812 ft | 404 kts | 326° |
| 2026-04-26 09:54 | 52.20482 | -0.81015 | 23491 ft | 407 kts | 326° |
| 2026-04-26 09:54 | 52.22901 | -0.83441 | 24135 ft | 410 kts | 326° |
| 2026-04-26 09:55 | 52.25350 | -0.85856 | 24703 ft | 413 kts | 326° |
| 2026-04-26 09:55 | 52.27817 | -0.88286 | 25269 ft | 416 kts | 326° |
| 2026-04-26 09:55 | 52.30293 | -0.90751 | 25865 ft | 417 kts | 326° |
| 2026-04-26 09:55 | 52.32778 | -0.93235 | 26430 ft | 420 kts | 326° |
| 2026-04-26 09:56 | 52.35250 | -0.95698 | 26976 ft | 423 kts | 326° |
| 2026-04-26 09:56 | 52.37773 | -0.98210 | 27532 ft | 426 kts | 326° |
| 2026-04-26 09:56 | 52.40314 | -1.00749 | 28059 ft | 430 kts | 325° |
| 2026-04-26 09:56 | 52.42875 | -1.03315 | 28589 ft | 433 kts | 325° |
| 2026-04-26 09:57 | 52.45454 | -1.05899 | 29142 ft | 436 kts | 325° |
| 2026-04-26 09:57 | 52.48053 | -1.08505 | 29681 ft | 439 kts | 325° |
| 2026-04-26 09:57 | 52.50671 | -1.11136 | 30210 ft | 443 kts | 325° |
| 2026-04-26 09:57 | 52.53305 | -1.13788 | 30695 ft | 445 kts | 325° |
| 2026-04-26 09:58 | 52.55950 | -1.16453 | 31142 ft | 448 kts | 325° |
| 2026-04-26 09:58 | 52.58610 | -1.19135 | 31730 ft | 446 kts | 325° |
| 2026-04-26 09:58 | 52.61220 | -1.21764 | 32262 ft | 440 kts | 325° |
| 2026-04-26 09:58 | 52.63868 | -1.24449 | 32258 ft | 454 kts | 324° |
| 2026-04-26 09:59 | 52.66593 | -1.27218 | 32260 ft | 466 kts | 325° |
| 2026-04-26 09:59 | 52.68477 | -1.29128 | 32261 ft | 474 kts | 325° |
| 2026-04-26 09:59 | 52.72255 | -1.32955 | 32274 ft | 488 kts | 325° |
| 2026-04-26 09:59 | 52.75178 | -1.35933 | 32330 ft | 498 kts | 325° |
| 2026-04-26 10:00 | 52.81099 | -1.41982 | 32324 ft | 503 kts | 325° |
| 2026-04-26 10:00 | 52.87052 | -1.48077 | 32325 ft | 504 kts | 325° |
| 2026-04-26 10:01 | 52.93016 | -1.54208 | 32335 ft | 506 kts | 325° |
| 2026-04-26 10:01 | 52.98992 | -1.60369 | 32329 ft | 506 kts | 325° |
| 2026-04-26 10:02 | 53.04979 | -1.66495 | 32318 ft | 506 kts | 327° |
| 2026-04-26 10:02 | 53.11584 | -1.70808 | 32335 ft | 511 kts | 336° |
| 2026-04-26 10:03 | 53.18246 | -1.74960 | 32330 ft | 511 kts | 335° |
| 2026-04-26 10:03 | 53.24913 | -1.79104 | 32343 ft | 511 kts | 336° |
| 2026-04-26 10:04 | 53.31570 | -1.83257 | 32331 ft | 511 kts | 335° |
| 2026-04-26 10:04 | 53.38222 | -1.87433 | 32331 ft | 511 kts | 336° |
| 2026-04-26 10:05 | 53.44878 | -1.91607 | 32324 ft | 511 kts | 336° |
| 2026-04-26 10:05 | 53.51528 | -1.95809 | 32323 ft | 511 kts | 335° |
| 2026-04-26 10:06 | 53.58178 | -2.00012 | 32317 ft | 510 kts | 335° |
| 2026-04-26 10:06 | 53.64823 | -2.04235 | 32317 ft | 510 kts | 335° |
| 2026-04-26 10:07 | 53.71469 | -2.08469 | 32315 ft | 510 kts | 335° |
| 2026-04-26 10:07 | 53.78065 | -2.12911 | 32307 ft | 511 kts | 334° |
| 2026-04-26 10:08 | 53.84684 | -2.17303 | 32307 ft | 511 kts | 334° |
| 2026-04-26 10:08 | 53.91252 | -2.21872 | 32309 ft | 510 kts | 334° |
| 2026-04-26 10:09 | 53.96748 | -2.25615 | 32311 ft | 514 kts | 334° |
| 2026-04-26 10:09 | 54.04525 | -2.30979 | 32322 ft | 518 kts | 334° |
| 2026-04-26 10:10 | 54.10081 | -2.34817 | 32317 ft | 519 kts | 334° |
| 2026-04-26 10:10 | 54.16771 | -2.39445 | 32314 ft | 519 kts | 334° |
| 2026-04-26 10:11 | 54.23457 | -2.44106 | 32314 ft | 519 kts | 334° |
| 2026-04-26 10:11 | 54.30135 | -2.48760 | 32310 ft | 518 kts | 333° |
| 2026-04-26 10:12 | 54.36800 | -2.53435 | 32310 ft | 511 kts | 334° |
| 2026-04-26 10:12 | 54.43355 | -2.58038 | 32296 ft | 510 kts | 333° |
| 2026-04-26 10:13 | 54.49915 | -2.62674 | 32294 ft | 510 kts | 333° |
| 2026-04-26 10:13 | 54.56472 | -2.67310 | 32296 ft | 510 kts | 333° |
| 2026-04-26 10:14 | 54.59725 | -2.69617 | 32026 ft | 495 kts | 333° |
| 2026-04-26 10:14 | 54.62820 | -2.71805 | 31381 ft | 467 kts | 333° |
| 2026-04-26 10:14 | 54.65755 | -2.73892 | 30779 ft | 448 kts | 332° |
| 2026-04-26 10:14 | 54.68609 | -2.75944 | 30157 ft | 442 kts | 332° |
| 2026-04-26 10:15 | 54.71447 | -2.77985 | 29578 ft | 442 kts | 332° |
| 2026-04-26 10:15 | 54.74284 | -2.80009 | 28991 ft | 439 kts | 333° |
| 2026-04-26 10:15 | 54.77098 | -2.82014 | 28418 ft | 436 kts | 333° |
| 2026-04-26 10:15 | 54.79893 | -2.84023 | 27839 ft | 434 kts | 333° |
| 2026-04-26 10:16 | 54.82635 | -2.86000 | 27272 ft | 431 kts | 333° |
| 2026-04-26 10:16 | 54.85397 | -2.87988 | 26713 ft | 428 kts | 333° |
| 2026-04-26 10:16 | 54.88156 | -2.89975 | 26293 ft | 435 kts | 333° |
| 2026-04-26 10:16 | 54.91036 | -2.92062 | 26293 ft | 446 kts | 333° |
| 2026-04-26 10:17 | 54.93811 | -2.94059 | 26300 ft | 434 kts | 333° |
| 2026-04-26 10:17 | 54.96536 | -2.96019 | 26291 ft | 424 kts | 333° |
| 2026-04-26 10:17 | 54.99312 | -2.98051 | 26305 ft | 441 kts | 333° |
| 2026-04-26 10:17 | 55.02065 | -3.00050 | 26281 ft | 423 kts | 333° |
| 2026-04-26 10:18 | 55.04810 | -3.02039 | 26267 ft | 427 kts | 333° |
| 2026-04-26 10:18 | 55.07526 | -3.04013 | 26158 ft | 419 kts | 333° |
| 2026-04-26 10:18 | 55.10197 | -3.05964 | 25732 ft | 419 kts | 333° |
| 2026-04-26 10:18 | 55.12888 | -3.07940 | 25117 ft | 420 kts | 333° |
| 2026-04-26 10:19 | 55.15572 | -3.09901 | 24471 ft | 417 kts | 334° |
| 2026-04-26 10:19 | 55.18243 | -3.11852 | 23837 ft | 414 kts | 334° |
| 2026-04-26 10:19 | 55.20891 | -3.13794 | 23092 ft | 411 kts | 334° |
| 2026-04-26 10:19 | 55.23512 | -3.15722 | 22375 ft | 406 kts | 334° |
| 2026-04-26 10:20 | 55.26100 | -3.17627 | 21572 ft | 403 kts | 334° |
| 2026-04-26 10:20 | 55.28682 | -3.19530 | 20634 ft | 401 kts | 334° |
| 2026-04-26 10:20 | 55.31244 | -3.21420 | 19656 ft | 396 kts | 334° |
| 2026-04-26 10:20 | 55.33767 | -3.23257 | 18679 ft | 387 kts | 335° |
| 2026-04-26 10:21 | 55.36406 | -3.23988 | 17497 ft | 387 kts | 359° |
| 2026-04-26 10:21 | 55.39011 | -3.22929 | 16396 ft | 383 kts | 17° |
| 2026-04-26 10:21 | 55.41433 | -3.21136 | 15613 ft | 370 kts | 21° |
| 2026-04-26 10:21 | 55.43751 | -3.19378 | 14900 ft | 357 kts | 20° |
| 2026-04-26 10:22 | 55.46054 | -3.17949 | 14185 ft | 345 kts | 14° |
| 2026-04-26 10:22 | 55.48372 | -3.17168 | 13380 ft | 335 kts | 3° |
| 2026-04-26 10:22 | 55.50653 | -3.16958 | 12809 ft | 321 kts | 358° |
| 2026-04-26 10:22 | 55.52846 | -3.16870 | 12291 ft | 310 kts | 359° |
| 2026-04-26 10:23 | 55.54966 | -3.16589 | 11772 ft | 302 kts | 3° |
| 2026-04-26 10:23 | 55.57057 | -3.16174 | 10850 ft | 307 kts | 3° |
| 2026-04-26 10:23 | 55.59206 | -3.15804 | 9889 ft | 313 kts | 2° |
| 2026-04-26 10:23 | 55.61317 | -3.15497 | 9558 ft | 296 kts | 2° |
| 2026-04-26 10:24 | 55.63305 | -3.15194 | 9124 ft | 285 kts | 2° |
| 2026-04-26 10:24 | 55.65269 | -3.14875 | 8688 ft | 275 kts | 2° |
| 2026-04-26 10:24 | 55.67123 | -3.14578 | 8281 ft | 268 kts | 2° |
| 2026-04-26 10:24 | 55.68991 | -3.14286 | 7857 ft | 264 kts | 2° |
| 2026-04-26 10:25 | 55.70810 | -3.13999 | 7458 ft | 261 kts | 2° |
| 2026-04-26 10:25 | 55.72601 | -3.13578 | 7146 ft | 257 kts | 8° |
| 2026-04-26 10:25 | 55.74334 | -3.13129 | 6995 ft | 255 kts | 5° |
| 2026-04-26 10:25 | 55.76095 | -3.12763 | 6803 ft | 253 kts | 5° |
| 2026-04-26 10:26 | 55.77831 | -3.12341 | 6582 ft | 250 kts | 6° |
| 2026-04-26 10:26 | 55.79541 | -3.11894 | 6356 ft | 247 kts | 6° |
| 2026-04-26 10:26 | 55.81241 | -3.11463 | 6136 ft | 246 kts | 6° |
| 2026-04-26 10:26 | 55.82911 | -3.11047 | 5919 ft | 239 kts | 6° |
| 2026-04-26 10:27 | 55.84558 | -3.10635 | 5707 ft | 239 kts | 6° |
| 2026-04-26 10:27 | 55.86209 | -3.10220 | 5500 ft | 241 kts | 6° |
| 2026-04-26 10:27 | 55.87875 | -3.09800 | 5296 ft | 243 kts | 6° |
| 2026-04-26 10:27 | 55.89547 | -3.09378 | 5072 ft | 241 kts | 6° |
| 2026-04-26 10:28 | 55.91193 | -3.08963 | 4556 ft | 241 kts | 6° |
| 2026-04-26 10:28 | 55.92822 | -3.08550 | 4329 ft | 232 kts | 6° |
| 2026-04-26 10:28 | 55.94426 | -3.08145 | 3653 ft | 233 kts | 6° |
| 2026-04-26 10:28 | 55.95961 | -3.07755 | 3452 ft | 213 kts | 6° |
| 2026-04-26 10:29 | 55.97446 | -3.07381 | 3066 ft | 219 kts | 6° |
| 2026-04-26 10:29 | 55.98921 | -3.07007 | 2991 ft | 209 kts | 6° |
| 2026-04-26 10:29 | 56.00357 | -3.06643 | 2994 ft | 210 kts | 6° |
| 2026-04-26 10:29 | 56.01789 | -3.06603 | 2930 ft | 198 kts | 343° |
| 2026-04-26 10:30 | 56.02878 | -3.07801 | 2969 ft | 177 kts | 312° |
| 2026-04-26 10:30 | 56.03466 | -3.09704 | 2983 ft | 177 kts | 283° |
| 2026-04-26 10:30 | 56.03443 | -3.11877 | 2980 ft | 177 kts | 253° |
| 2026-04-26 10:30 | 56.02883 | -3.13825 | 2998 ft | 179 kts | 240° |
| 2026-04-26 10:31 | 56.02244 | -3.15794 | 2759 ft | 184 kts | 239° |
| 2026-04-26 10:31 | 56.01600 | -3.17720 | 2487 ft | 169 kts | 239° |
| 2026-04-26 10:31 | 56.01035 | -3.19393 | 2263 ft | 150 kts | 238° |
| 2026-04-26 10:31 | 56.00494 | -3.20995 | 2064 ft | 153 kts | 238° |
| 2026-04-26 10:32 | 55.99939 | -3.22636 | 1855 ft | 154 kts | 238° |
| 2026-04-26 10:32 | 55.99432 | -3.24138 | 1647 ft | 129 kts | 238° |
| 2026-04-26 10:32 | 55.98986 | -3.25458 | 1479 ft | 121 kts | 238° |
| 2026-04-26 10:32 | 55.98550 | -3.26748 | 1317 ft | 121 kts | 238° |
| 2026-04-26 10:33 | 55.98112 | -3.28042 | 1149 ft | 122 kts | 238° |
| 2026-04-26 10:33 | 55.97670 | -3.29347 | 984 ft | 123 kts | 239° |
| 2026-04-26 10:33 | 55.97227 | -3.30663 | 815 ft | 124 kts | 239° |
| 2026-04-26 10:33 | 55.96786 | -3.31991 | 647 ft | 125 kts | 239° |
| 2026-04-26 10:34 | 55.96336 | -3.33332 | 436 ft | 126 kts | 240° |
| 2026-04-26 10:34 | 55.95885 | -3.34649 | 285 ft | 124 kts | 239° |
| 2026-04-26 10:34 | 55.95441 | -3.35950 | 143 ft | 122 kts | 240° |
| 2026-04-26 10:34 | 55.95037 | -3.37145 | 107 ft | 110 kts | 239° |
| 2026-04-26 10:35 | 55.94752 | -3.37982 | 112 ft | 52 kts | 239° |
| 2026-04-26 10:35 | 55.94570 | -3.38515 | 109 ft | 43 kts | 238° |
| 2026-04-26 10:35 | 55.94435 | -3.38912 | 111 ft | 29 kts | 239° |
| 2026-04-26 10:35 | 55.94347 | -3.38931 | 112 ft | 15 kts | 149° |
| 2026-04-26 10:36 | 55.94278 | -3.38825 | 112 ft | 12 kts | 94° |
| 2026-04-26 10:36 | 55.94321 | -3.38681 | 112 ft | 20 kts | 58° |
| 2026-04-26 10:36 | 55.94394 | -3.38463 | 112 ft | 20 kts | 59° |
| 2026-04-26 10:36 | 55.94492 | -3.38176 | 112 ft | 34 kts | 59° |
| 2026-04-26 10:37 | 55.94603 | -3.37847 | 112 ft | 32 kts | 59° |
| 2026-04-26 10:37 | 55.94718 | -3.37508 | 112 ft | 31 kts | 59° |
| 2026-04-26 10:37 | 55.94829 | -3.37185 | 112 ft | 30 kts | 58° |
| 2026-04-26 10:37 | 55.94933 | -3.36874 | 111 ft | 29 kts | 59° |
| 2026-04-26 10:38 | 55.95035 | -3.36576 | 113 ft | 28 kts | 59° |
| 2026-04-26 10:38 | 55.95132 | -3.36288 | 112 ft | 27 kts | 59° |
| 2026-04-26 10:38 | 55.95214 | -3.36039 | 112 ft | 16 kts | 74° |
| 2026-04-26 10:38 | 55.95152 | -3.35930 | 111 ft | 12 kts | 148° |
| 2026-04-26 10:39 | 55.95091 | -3.35787 | 113 ft | 20 kts | 135° |
| 2026-04-26 10:39 | 55.95023 | -3.35589 | 113 ft | 19 kts | 118° |
| 2026-04-26 10:39 | 55.94929 | -3.35286 | 112 ft | 31 kts | 118° |
| 2026-04-26 10:39 | 55.94826 | -3.34950 | 112 ft | 30 kts | 119° |
| 2026-04-26 10:40 | 55.94762 | -3.34748 | 113 ft | 11 kts | 65° |
| 2026-04-26 10:40 | 55.94782 | -3.34654 | 112 ft | 3 kts | 137° |
| 2026-04-26 10:40 | 55.94738 | -3.34612 | 111 ft | 0 kts | 148° |